Time;durP1;ratioP1;P1;durP2;ratioP2;P2;SDS_P1;SDS_P2;PMS_P1;PMS_P2;Temp;Humidity;BMP_temperature;BMP_pressure;BME280_temperature;BME280_humidity;BME280_pressure;Samples;Min_cycle;Max_cycle;Signal;HPM_P1;HPM_P2
2023/01/01 00:01:13;;;;;;;13.57;7.00;;;;;;;;;;4948823;28;20826;-71
2023/01/01 00:03:57;;;;;;;12.77;6.88;;;;;;;;;;4954035;28;20442;-74
2023/01/01 00:06:23;;;;;;;11.82;6.50;;;;;;;;;;4952947;28;20057;-72
2023/01/01 00:10:26;;;;;;;13.70;6.55;;;;;;;;;;4946862;28;20387;-72
2023/01/01 00:11:35;;;;;;;11.68;6.43;;;;;;;;;;4955250;28;20501;-72
2023/01/01 00:14:01;;;;;;;10.30;6.38;;;;;;;;;;4948923;28;20146;-71
2023/01/01 00:16:27;;;;;;;11.75;6.43;;;;;;;;;;4946393;28;20442;-72
2023/01/01 00:18:53;;;;;;;14.40;6.13;;;;;;;;;;4957811;28;20050;-70
2023/01/01 00:21:19;;;;;;;13.27;6.65;;;;;;;;;;4952833;28;20047;-72
2023/01/01 00:23:45;;;;;;;12.30;6.28;;;;;;;;;;4941701;28;20062;-72
2023/01/01 00:26:13;;;;;;;9.77;6.25;;;;;;;;;;4949364;28;20042;-71
2023/01/01 00:28:39;;;;;;;13.27;5.75;;;;;;;;;;4949060;28;20054;-71
2023/01/01 00:31:09;;;;;;;10.98;5.68;;;;;;;;;;4948538;28;20058;-72
2023/01/01 00:33:35;;;;;;;10.60;5.40;;;;;;;;;;4948724;28;20043;-71
2023/01/01 00:36:09;;;;;;;9.07;5.45;;;;;;;;;;4950026;28;20039;-72
2023/01/01 00:38:35;;;;;;;9.98;4.93;;;;;;;;;;4949770;28;20065;-71
2023/01/01 00:41:02;;;;;;;10.73;5.70;;;;;;;;;;4948765;28;20130;-71
2023/01/01 00:43:28;;;;;;;8.43;4.80;;;;;;;;;;4950046;28;20047;-72
2023/01/01 00:45:54;;;;;;;8.48;4.75;;;;;;;;;;4951303;28;20047;-72
2023/01/01 00:48:20;;;;;;;13.15;5.53;;;;;;;;;;4954440;28;20039;-73
2023/01/01 00:50:47;;;;;;;8.65;4.70;;;;;;;;;;4957931;28;20059;-73
2023/01/01 00:53:14;;;;;;;11.18;5.20;;;;;;;;;;4953460;28;20109;-74
2023/01/01 00:55:40;;;;;;;11.55;4.82;;;;;;;;;;4957567;28;20082;-72
2023/01/01 00:58:07;;;;;;;12.65;5.20;;;;;;;;;;4950735;28;20382;-71
2023/01/01 01:00:32;;;;;;;10.95;5.00;;;;;;;;;;4950978;28;20047;-73
2023/01/01 01:02:58;;;;;;;10.65;4.03;;;;;;;;;;4952928;28;20046;-74
2023/01/01 01:05:24;;;;;;;8.75;3.92;;;;;;;;;;4958545;28;20572;-74
2023/01/01 01:07:50;;;;;;;5.97;3.80;;;;;;;;;;4954379;28;20497;-71
2023/01/01 01:10:17;;;;;;;6.57;4.10;;;;;;;;;;4955331;28;20043;-73
2023/01/01 01:12:43;;;;;;;6.97;3.35;;;;;;;;;;4953466;28;20057;-73
2023/01/01 01:15:09;;;;;;;8.40;3.60;;;;;;;;;;4956390;28;20480;-73
2023/01/01 01:17:35;;;;;;;6.03;3.38;;;;;;;;;;4967805;28;20681;-75
2023/01/01 01:20:02;;;;;;;7.53;3.22;;;;;;;;;;4959232;28;20078;-69
2023/01/01 01:22:28;;;;;;;8.18;3.33;;;;;;;;;;4957136;28;20059;-73
2023/01/01 01:24:54;;;;;;;6.20;2.90;;;;;;;;;;4958135;28;20121;-69
2023/01/01 01:27:20;;;;;;;4.90;2.75;;;;;;;;;;4962487;28;20043;-73
2023/01/01 01:29:46;;;;;;;5.68;2.80;;;;;;;;;;4963888;28;20051;-70
2023/01/01 01:32:12;;;;;;;7.60;3.00;;;;;;;;;;4963137;28;20673;-71
2023/01/01 01:34:38;;;;;;;7.50;3.55;;;;;;;;;;4961685;28;20051;-71
2023/01/01 01:37:04;;;;;;;5.20;3.28;;;;;;;;;;4960647;28;20079;-72
2023/01/01 01:39:30;;;;;;;7.40;3.03;;;;;;;;;;4955022;28;20449;-70
2023/01/01 01:41:56;;;;;;;7.07;3.03;;;;;;;;;;4953500;28;20488;-72
2023/01/01 01:44:43;;;;;;;11.70;3.60;;;;;;;;;;4957356;28;20121;-71
2023/01/01 01:47:28;;;;;;;10.15;3.83;;;;;;;;;;4960293;28;20130;-73
2023/01/01 01:50:20;;;;;;;4.95;3.53;;;;;;;;;;4954069;28;20043;-71
2023/01/01 01:53:06;;;;;;;9.68;2.97;;;;;;;;;;4946359;28;20118;-72
2023/01/01 01:55:36;;;;;;;6.70;3.00;;;;;;;;;;4954518;28;20047;-69
2023/01/01 01:58:03;;;;;;;5.18;2.45;;;;;;;;;;4940722;28;20129;-70
2023/01/01 02:00:29;;;;;;;6.10;2.72;;;;;;;;;;4944458;28;21217;-72
2023/01/01 02:03:01;;;;;;;5.18;2.67;;;;;;;;;;4946907;28;20054;-69
2023/01/01 02:05:29;;;;;;;8.50;3.88;;;;;;;;;;4957333;28;20070;-71
2023/01/01 02:07:57;;;;;;;8.85;4.28;;;;;;;;;;4948222;28;20059;-72
2023/01/01 02:10:23;;;;;;;9.25;4.00;;;;;;;;;;4950608;28;20225;-70
2023/01/01 02:12:49;;;;;;;8.10;3.72;;;;;;;;;;4955600;28;20133;-70
2023/01/01 02:15:16;;;;;;;11.65;5.18;;;;;;;;;;4952499;28;20066;-71
2023/01/01 02:17:57;;;;;;;17.58;8.43;;;;;;;;;;4949541;28;20126;-70
2023/01/01 02:20:28;;;;;;;15.45;6.47;;;;;;;;;;4955300;28;20137;-71
2023/01/01 02:23:32;;;;;;;14.05;5.93;;;;;;;;;;4956603;28;20054;-71
2023/01/01 02:26:16;;;;;;;15.88;5.55;;;;;;;;;;4958350;28;20122;-71
2023/01/01 02:29:01;;;;;;;17.17;5.53;;;;;;;;;;4955716;28;20050;-72
2023/01/01 02:31:32;;;;;;;12.57;4.80;;;;;;;;;;4950710;28;20046;-70
2023/01/01 02:34:01;;;;;;;13.48;4.90;;;;;;;;;;4955815;28;20042;-73
2023/01/01 02:36:30;;;;;;;6.47;3.60;;;;;;;;;;4957029;28;20497;-71
2023/01/01 02:38:58;;;;;;;8.13;3.88;;;;;;;;;;4956317;28;20055;-71
2023/01/01 02:41:28;;;;;;;9.55;3.30;;;;;;;;;;4954277;28;20055;-70
2023/01/01 02:43:55;;;;;;;6.72;3.08;;;;;;;;;;4950953;28;20047;-71
2023/01/01 02:46:21;;;;;;;8.65;2.83;;;;;;;;;;4943562;28;20062;-73
2023/01/01 02:48:48;;;;;;;5.63;2.50;;;;;;;;;;4960633;28;20058;-71
2023/01/01 02:51:32;;;;;;;5.18;2.58;;;;;;;;;;4953504;28;20112;-71
2023/01/01 02:54:13;;;;;;;8.75;2.70;;;;;;;;;;4954135;28;20315;-72
2023/01/01 02:56:58;;;;;;;9.18;2.90;;;;;;;;;;4957503;28;20051;-72
2023/01/01 03:02:38;;;;;;;5.65;2.40;;;;;;;;;;4951373;28;20051;-70
2023/01/01 03:05:08;;;;;;;6.40;2.88;;;;;;;;;;4949730;28;20051;-71
2023/01/01 03:08:03;;;;;;;6.43;2.78;;;;;;;;;;4956373;28;20103;-72
2023/01/01 03:10:48;;;;;;;5.88;3.08;;;;;;;;;;4953797;28;20084;-70
2023/01/01 03:13:14;;;;;;;6.50;2.60;;;;;;;;;;4947092;28;20515;-70
2023/01/01 03:15:49;;;;;;;4.30;2.50;;;;;;;;;;4957846;28;20203;-70
2023/01/01 03:18:43;;;;;;;3.38;2.40;;;;;;;;;;4944453;28;20404;-70
2023/01/01 03:21:12;;;;;;;4.85;2.30;;;;;;;;;;4954309;28;20062;-70
2023/01/01 03:23:45;;;;;;;7.80;2.72;;;;;;;;;;4959207;28;20118;-72
2023/01/01 03:26:13;;;;;;;4.32;2.50;;;;;;;;;;4946905;28;20055;-70
2023/01/01 03:28:44;;;;;;;7.38;2.80;;;;;;;;;;4962351;28;20130;-72
2023/01/01 03:31:15;;;;;;;6.78;2.40;;;;;;;;;;4957464;28;20050;-71
2023/01/01 03:33:46;;;;;;;8.32;2.72;;;;;;;;;;4956167;28;20678;-71
2023/01/01 03:36:19;;;;;;;6.78;2.78;;;;;;;;;;4959953;28;20047;-70
2023/01/01 03:39:03;;;;;;;12.95;2.65;;;;;;;;;;4961394;28;20667;-70
2023/01/01 03:41:38;;;;;;;;;;;;;;;;;;4957259;28;20050;-71
2023/01/01 03:44:07;;;;;;;6.68;2.83;;;;;;;;;;4957290;28;19933;-71
2023/01/01 03:46:35;;;;;;;6.60;3.15;;;;;;;;;;4957350;28;20051;-71
2023/01/01 03:49:04;;;;;;;11.45;2.78;;;;;;;;;;4952806;28;20059;-73
2023/01/01 03:52:01;;;;;;;8.68;3.00;;;;;;;;;;4953567;28;20043;-70
2023/01/01 03:54:37;;;;;;;7.18;2.72;;;;;;;;;;4959382;28;20707;-71
2023/01/01 03:57:20;;;;;;;4.20;2.53;;;;;;;;;;4955827;28;20051;-70
2023/01/01 04:00:02;;;;;;;8.05;2.80;;;;;;;;;;4951627;28;20161;-71
2023/01/01 04:02:39;;;;;;;5.53;2.75;;;;;;;;;;4956861;28;20055;-74
2023/01/01 04:05:09;;;;;;;7.82;2.88;;;;;;;;;;4952029;28;20547;-71
2023/01/01 04:07:37;;;;;;;4.65;2.78;;;;;;;;;;4957765;28;20047;-70
2023/01/01 04:10:15;;;;;;;5.55;2.42;;;;;;;;;;4953969;28;20141;-71
2023/01/01 04:12:54;;;;;;;5.38;2.47;;;;;;;;;;4961583;28;20039;-71
2023/01/01 04:15:23;;;;;;;5.75;2.60;;;;;;;;;;4955627;28;20105;-72
2023/01/01 04:17:50;;;;;;;3.55;2.20;;;;;;;;;;4949334;28;20257;-71
2023/01/01 04:20:16;;;;;;;4.72;2.33;;;;;;;;;;4947122;28;20063;-70
2023/01/01 04:22:44;;;;;;;4.65;2.20;;;;;;;;;;4951289;28;20051;-71
2023/01/01 04:25:11;;;;;;;3.08;2.10;;;;;;;;;;4957736;28;20054;-69
2023/01/01 04:27:39;;;;;;;5.85;2.88;;;;;;;;;;4953368;28;20054;-71
2023/01/01 04:30:08;;;;;;;5.30;2.60;;;;;;;;;;4951819;28;20078;-72
2023/01/01 04:32:34;;;;;;;4.20;2.53;;;;;;;;;;4944804;28;20086;-68
2023/01/01 04:35:01;;;;;;;7.65;2.97;;;;;;;;;;4949947;28;20129;-69
2023/01/01 04:37:27;;;;;;;5.78;2.30;;;;;;;;;;4952274;28;20039;-71
2023/01/01 04:39:53;;;;;;;9.88;2.53;;;;;;;;;;4952567;28;20059;-70
2023/01/01 04:42:19;;;;;;;5.40;2.22;;;;;;;;;;4955242;28;20105;-69
2023/01/01 04:44:45;;;;;;;6.32;2.60;;;;;;;;;;4954618;28;20039;-71
2023/01/01 04:47:12;;;;;;;6.00;2.33;;;;;;;;;;4953141;28;20050;-70
2023/01/01 04:49:38;;;;;;;5.00;2.55;;;;;;;;;;4952479;28;20110;-72
2023/01/01 04:52:04;;;;;;;5.38;2.63;;;;;;;;;;4962488;28;20089;-70
2023/01/01 04:54:30;;;;;;;4.93;2.15;;;;;;;;;;4954949;28;20050;-69
2023/01/01 04:56:56;;;;;;;5.57;2.80;;;;;;;;;;4954108;28;20059;-72
2023/01/01 04:59:22;;;;;;;8.07;2.50;;;;;;;;;;4950825;28;20062;-69
2023/01/01 05:01:49;;;;;;;5.65;2.53;;;;;;;;;;4951489;28;20246;-69
2023/01/01 05:04:16;;;;;;;8.20;2.38;;;;;;;;;;4948852;28;20143;-71
2023/01/01 05:06:42;;;;;;;4.82;2.38;;;;;;;;;;4949722;28;20051;-71
2023/01/01 05:09:10;;;;;;;6.82;2.30;;;;;;;;;;4952060;28;20165;-69
2023/01/01 05:11:36;;;;;;;5.85;2.20;;;;;;;;;;4954511;28;20209;-69
2023/01/01 05:14:03;;;;;;;7.10;2.65;;;;;;;;;;4956807;28;20158;-71
2023/01/01 05:16:32;;;;;;;3.92;2.20;;;;;;;;;;4953279;28;20544;-68
2023/01/01 05:18:58;;;;;;;4.40;2.30;;;;;;;;;;4949438;28;20506;-68
2023/01/01 05:21:32;;;;;;;8.40;2.88;;;;;;;;;;4952048;28;20054;-72
2023/01/01 05:24:02;;;;;;;4.13;2.35;;;;;;;;;;4954042;28;20055;-69
2023/01/01 05:26:30;;;;;;;5.50;2.30;;;;;;;;;;4949682;28;20066;-69
2023/01/01 05:28:58;;;;;;;4.18;2.33;;;;;;;;;;4955104;28;20047;-70
2023/01/01 05:31:27;;;;;;;9.57;2.65;;;;;;;;;;4959329;28;20047;-69
2023/01/01 05:33:54;;;;;;;7.07;2.63;;;;;;;;;;4956013;28;20054;-71
2023/01/01 05:36:23;;;;;;;5.85;2.38;;;;;;;;;;4955471;28;20444;-69
2023/01/01 05:38:50;;;;;;;5.47;2.78;;;;;;;;;;4954441;28;20503;-70
2023/01/01 05:41:18;;;;;;;6.53;2.42;;;;;;;;;;4957435;28;20050;-69
2023/01/01 05:43:44;;;;;;;6.40;2.65;;;;;;;;;;4961302;28;20047;-70
2023/01/01 05:46:16;;;;;;;8.55;2.58;;;;;;;;;;4961173;28;20047;-69
2023/01/01 05:48:43;;;;;;;6.70;2.60;;;;;;;;;;4959522;28;20576;-69
2023/01/01 05:51:13;;;;;;;6.65;2.75;;;;;;;;;;4962533;28;20493;-68
2023/01/01 05:53:40;;;;;;;8.07;2.88;;;;;;;;;;4957911;28;20054;-69
2023/01/01 05:56:07;;;;;;;5.07;2.60;;;;;;;;;;4956497;28;20268;-72
2023/01/01 05:58:34;;;;;;;5.35;2.30;;;;;;;;;;4957125;28;20151;-71
2023/01/01 06:01:08;;;;;;;7.95;3.10;;;;;;;;;;4955786;28;20058;-68
2023/01/01 06:03:35;;;;;;;7.35;2.50;;;;;;;;;;4954623;28;20042;-69
2023/01/01 06:06:04;;;;;;;5.40;2.35;;;;;;;;;;4958745;28;20732;-68
2023/01/01 06:08:30;;;;;;;6.00;2.60;;;;;;;;;;4956182;28;20039;-68
2023/01/01 06:11:04;;;;;;;5.60;2.38;;;;;;;;;;4954157;28;20047;-68
2023/01/01 06:13:30;;;;;;;6.03;2.30;;;;;;;;;;4952675;28;20138;-69
2023/01/01 06:15:58;;;;;;;3.97;2.05;;;;;;;;;;4957516;28;20070;-70
2023/01/01 06:18:25;;;;;;;5.35;2.60;;;;;;;;;;4958409;28;20051;-70
2023/01/01 06:20:51;;;;;;;7.38;2.30;;;;;;;;;;4957519;28;20073;-70
2023/01/01 06:23:18;;;;;;;4.55;2.33;;;;;;;;;;4954794;28;20039;-70
2023/01/01 06:25:45;;;;;;;3.92;1.92;;;;;;;;;;4956876;28;20101;-69
2023/01/01 06:28:11;;;;;;;2.67;1.90;;;;;;;;;;4960777;28;20057;-70
2023/01/01 06:30:37;;;;;;;3.50;1.88;;;;;;;;;;4958343;28;20042;-69
2023/01/01 06:33:04;;;;;;;4.35;2.03;;;;;;;;;;4952588;28;20055;-70
2023/01/01 06:35:31;;;;;;;4.88;1.85;;;;;;;;;;4957586;28;20057;-70
2023/01/01 06:37:59;;;;;;;6.68;2.13;;;;;;;;;;4953007;28;20058;-69
2023/01/01 06:40:26;;;;;;;5.05;2.08;;;;;;;;;;4960298;28;20046;-71
2023/01/01 06:42:52;;;;;;;4.13;1.90;;;;;;;;;;4955606;28;20412;-72
2023/01/01 06:45:18;;;;;;;7.80;2.50;;;;;;;;;;4957267;28;20047;-71
2023/01/01 06:47:44;;;;;;;6.38;2.35;;;;;;;;;;4953699;28;20054;-69
2023/01/01 06:50:10;;;;;;;6.82;2.00;;;;;;;;;;4956774;28;20188;-70
2023/01/01 06:52:36;;;;;;;6.47;2.50;;;;;;;;;;4955891;28;20138;-71
2023/01/01 06:55:03;;;;;;;4.22;2.30;;;;;;;;;;4957804;28;20093;-71
2023/01/01 06:57:29;;;;;;;7.88;2.30;;;;;;;;;;4956743;28;20096;-73
2023/01/01 06:59:55;;;;;;;6.20;2.67;;;;;;;;;;4954042;28;20058;-72
2023/01/01 07:02:21;;;;;;;5.55;2.40;;;;;;;;;;4952921;28;20057;-70
2023/01/01 07:04:48;;;;;;;5.25;2.10;;;;;;;;;;4954122;28;20405;-71
2023/01/01 07:07:14;;;;;;;7.25;2.40;;;;;;;;;;4955816;28;20038;-69
2023/01/01 07:09:40;;;;;;;5.38;2.33;;;;;;;;;;4950592;28;20070;-69
2023/01/01 07:12:06;;;;;;;3.30;2.10;;;;;;;;;;4954549;28;20047;-69
2023/01/01 07:14:32;;;;;;;6.10;2.67;;;;;;;;;;4955200;28;20053;-71
2023/01/01 07:16:58;;;;;;;8.52;2.60;;;;;;;;;;4954578;28;20050;-69
2023/01/01 07:19:25;;;;;;;7.00;2.47;;;;;;;;;;4951111;28;20087;-70
2023/01/01 07:21:53;;;;;;;5.57;2.47;;;;;;;;;;4950477;28;20055;-70
2023/01/01 07:24:20;;;;;;;8.52;2.95;;;;;;;;;;4953242;28;20050;-71
2023/01/01 07:26:46;;;;;;;4.70;2.55;;;;;;;;;;4951719;28;20627;-69
2023/01/01 07:29:13;;;;;;;5.90;2.22;;;;;;;;;;4951051;28;20089;-71
2023/01/01 07:31:41;;;;;;;6.30;2.53;;;;;;;;;;4960398;28;20051;-72
2023/01/01 07:34:12;;;;;;;6.15;2.70;;;;;;;;;;4955008;28;20100;-71
2023/01/01 07:36:38;;;;;;;4.28;2.55;;;;;;;;;;4959047;28;20396;-70
2023/01/01 07:39:06;;;;;;;5.45;2.65;;;;;;;;;;4954372;28;20051;-70
2023/01/01 07:41:33;;;;;;;6.28;2.72;;;;;;;;;;4947247;28;20134;-71
2023/01/01 07:43:59;;;;;;;6.53;2.72;;;;;;;;;;4956987;28;20047;-71
2023/01/01 07:46:25;;;;;;;5.45;2.60;;;;;;;;;;4944383;28;20043;-70
2023/01/01 07:48:51;;;;;;;7.15;3.63;;;;;;;;;;4950970;28;20252;-69
2023/01/01 07:51:17;;;;;;;8.65;3.40;;;;;;;;;;4954217;28;20105;-69
2023/01/01 07:53:44;;;;;;;6.63;3.42;;;;;;;;;;4947630;28;20075;-70
2023/01/01 07:56:10;;;;;;;6.93;3.13;;;;;;;;;;4949777;28;20487;-70
2023/01/01 07:58:40;;;;;;;7.30;3.67;;;;;;;;;;4950764;28;20051;-71
2023/01/01 08:01:09;;;;;;;8.35;3.67;;;;;;;;;;4949071;28;20381;-69
2023/01/01 08:03:35;;;;;;;10.85;3.70;;;;;;;;;;4951584;28;20077;-71
2023/01/01 08:06:09;;;;;;;8.18;3.60;;;;;;;;;;4944375;28;20087;-70
2023/01/01 08:08:35;;;;;;;7.93;4.00;;;;;;;;;;4948976;28;20058;-69
2023/01/01 08:11:02;;;;;;;8.95;4.55;;;;;;;;;;4949445;28;20588;-71
2023/01/01 08:13:28;;;;;;;8.20;3.78;;;;;;;;;;4951182;28;20543;-70
2023/01/01 08:15:56;;;;;;;9.50;3.75;;;;;;;;;;4950959;28;20055;-72
2023/01/01 08:18:23;;;;;;;7.65;4.07;;;;;;;;;;4952225;28;20063;-70
2023/01/01 08:20:49;;;;;;;7.60;4.13;;;;;;;;;;4947910;28;20088;-71
2023/01/01 08:23:15;;;;;;;9.68;4.13;;;;;;;;;;4947250;28;20054;-71
2023/01/01 08:25:41;;;;;;;12.18;6.60;;;;;;;;;;4946017;28;20050;-69
2023/01/01 08:28:09;;;;;;;10.07;4.80;;;;;;;;;;4944284;28;20063;-70
2023/01/01 08:30:35;;;;;;;9.63;4.43;;;;;;;;;;4948167;28;20157;-71
2023/01/01 08:33:01;;;;;;;9.60;3.70;;;;;;;;;;4947008;28;20245;-72
2023/01/01 08:35:27;;;;;;;13.18;4.25;;;;;;;;;;4949059;28;20485;-71
2023/01/01 08:37:53;;;;;;;8.15;4.28;;;;;;;;;;4948694;28;20067;-71
2023/01/01 08:40:19;;;;;;;9.82;3.88;;;;;;;;;;4928342;28;20450;-69
2023/01/01 08:42:45;;;;;;;9.68;3.78;;;;;;;;;;4953025;28;20046;-70
2023/01/01 08:45:11;;;;;;;10.90;3.45;;;;;;;;;;4942512;28;20085;-72
2023/01/01 08:47:38;;;;;;;5.57;2.97;;;;;;;;;;4947203;28;20086;-71
2023/01/01 08:50:04;;;;;;;9.05;3.17;;;;;;;;;;4950915;28;20050;-71
2023/01/01 08:52:31;;;;;;;8.45;3.22;;;;;;;;;;4952383;28;20059;-71
2023/01/01 08:54:57;;;;;;;6.65;3.33;;;;;;;;;;4948808;28;20391;-71
2023/01/01 08:57:23;;;;;;;6.55;3.22;;;;;;;;;;4934669;28;20062;-70
2023/01/01 08:59:49;;;;;;;8.40;3.00;;;;;;;;;;4950054;28;20461;-71
2023/01/01 09:02:15;;;;;;;10.93;3.50;;;;;;;;;;4944389;28;20150;-71
2023/01/01 09:04:41;;;;;;;5.90;3.38;;;;;;;;;;4947320;28;20576;-71
2023/01/01 09:07:08;;;;;;;5.45;3.22;;;;;;;;;;4947620;28;20097;-73
2023/01/01 09:09:34;;;;;;;11.48;3.60;;;;;;;;;;4949068;28;20051;-71
2023/01/01 09:12:07;;;;;;;7.15;3.42;;;;;;;;;;4947327;28;20086;-71
2023/01/01 09:14:33;;;;;;;8.93;3.35;;;;;;;;;;4953615;28;20113;-71
2023/01/01 09:17:00;;;;;;;9.70;3.83;;;;;;;;;;4946885;28;20342;-72
2023/01/01 09:19:27;;;;;;;10.10;3.60;;;;;;;;;;4954157;28;20097;-71
2023/01/01 09:21:53;;;;;;;8.77;3.60;;;;;;;;;;4955454;28;20075;-71
2023/01/01 09:24:19;;;;;;;10.65;3.63;;;;;;;;;;4948650;28;20159;-71
2023/01/01 09:26:45;;;;;;;8.18;3.50;;;;;;;;;;4951188;28;20058;-70
2023/01/01 09:29:11;;;;;;;9.77;3.58;;;;;;;;;;4954649;28;20078;-71
2023/01/01 09:31:37;;;;;;;10.38;3.78;;;;;;;;;;4954545;28;20074;-70
2023/01/01 09:34:04;;;;;;;10.65;3.58;;;;;;;;;;4946805;28;20135;-70
2023/01/01 09:36:31;;;;;;;12.70;3.80;;;;;;;;;;4955294;28;20523;-72
2023/01/01 09:38:58;;;;;;;11.95;4.47;;;;;;;;;;4950461;28;20517;-72
2023/01/01 09:41:39;;;;;;;14.35;5.25;;;;;;;;;;4950843;28;20055;-74
2023/01/01 09:44:32;;;;;;;12.02;4.40;;;;;;;;;;4949424;28;20294;-71
2023/01/01 09:47:02;;;;;;;10.40;4.40;;;;;;;;;;4952909;28;20161;-73
2023/01/01 09:49:28;;;;;;;6.78;3.40;;;;;;;;;;4946396;28;20055;-72
2023/01/01 09:52:00;;;;;;;7.45;3.63;;;;;;;;;;4952472;28;20504;-73
2023/01/01 09:54:35;;;;;;;5.38;3.22;;;;;;;;;;4948891;28;20320;-72
2023/01/01 09:57:07;;;;;;;13.05;3.83;;;;;;;;;;4953711;28;20080;-73
2023/01/01 09:59:33;;;;;;;9.70;3.55;;;;;;;;;;4954976;28;20888;-71
2023/01/01 10:02:21;;;;;;;9.43;3.35;;;;;;;;;;4954153;28;20043;-71
2023/01/01 10:04:50;;;;;;;8.90;3.50;;;;;;;;;;4951605;28;20082;-73
2023/01/01 10:07:28;;;;;;;7.65;3.42;;;;;;;;;;4957067;28;20055;-71
2023/01/01 10:10:24;;;;;;;12.05;5.68;;;;;;;;;;4952183;28;20058;-73
2023/01/01 10:13:05;;;;;;;8.50;4.22;;;;;;;;;;4954110;28;20050;-73
2023/01/01 10:15:42;;;;;;;8.60;4.13;;;;;;;;;;4952409;28;20083;-70
2023/01/01 10:18:22;;;;;;;8.80;3.83;;;;;;;;;;4950312;28;20469;-72
2023/01/01 10:21:19;;;;;;;12.55;4.10;;;;;;;;;;4950124;28;20389;-74
2023/01/01 10:23:55;;;;;;;9.82;4.00;;;;;;;;;;4952420;28;20101;-70
2023/01/01 10:26:25;;;;;;;8.90;4.00;;;;;;;;;;4950794;28;20190;-70
2023/01/01 10:29:04;;;;;;;6.80;3.88;;;;;;;;;;4954129;28;20085;-72
2023/01/01 10:31:33;;;;;;;8.63;4.22;;;;;;;;;;4951524;28;21848;-69
2023/01/01 10:34:11;;;;;;;7.70;4.18;;;;;;;;;;4959318;28;20055;-69
2023/01/01 10:36:37;;;;;;;9.00;3.47;;;;;;;;;;4957914;28;20092;-71
2023/01/01 10:39:04;;;;;;;12.27;4.07;;;;;;;;;;4949958;28;20101;-73
2023/01/01 10:41:30;;;;;;;8.65;3.42;;;;;;;;;;4957479;28;20172;-73
2023/01/01 10:43:57;;;;;;;10.48;4.45;;;;;;;;;;4964427;28;20070;-70
2023/01/01 10:46:25;;;;;;;9.23;3.95;;;;;;;;;;4955342;28;20085;-71
2023/01/01 10:49:03;;;;;;;15.90;5.30;;;;;;;;;;4952094;28;20051;-70
2023/01/01 10:51:29;;;;;;;7.63;3.35;;;;;;;;;;4956213;28;20043;-70
2023/01/01 10:53:56;;;;;;;8.90;3.97;;;;;;;;;;4957471;28;20062;-75
2023/01/01 10:56:23;;;;;;;9.48;4.25;;;;;;;;;;4961865;28;20058;-72
2023/01/01 10:58:53;;;;;;;7.05;3.47;;;;;;;;;;4954851;28;20117;-73
2023/01/01 11:01:26;;;;;;;8.40;3.88;;;;;;;;;;4958379;28;20053;-71
2023/01/01 11:03:55;;;;;;;13.60;3.90;;;;;;;;;;4954316;28;20497;-73
2023/01/01 11:06:40;;;;;;;7.30;4.00;;;;;;;;;;4957571;28;20053;-74
2023/01/01 11:09:28;;;;;;;7.97;3.60;;;;;;;;;;4949754;28;20057;-70
2023/01/01 11:12:00;;;;;;;9.32;4.47;;;;;;;;;;4958351;28;20042;-70
2023/01/01 11:14:31;;;;;;;8.43;3.85;;;;;;;;;;4956610;28;20055;-71
2023/01/01 11:16:58;;;;;;;9.32;4.30;;;;;;;;;;4950346;28;20059;-71
2023/01/01 11:19:35;;;;;;;11.60;4.80;;;;;;;;;;4948526;28;20134;-71
2023/01/01 11:22:03;;;;;;;7.93;4.45;;;;;;;;;;4951151;28;20074;-70
2023/01/01 11:24:34;;;;;;;9.57;4.85;;;;;;;;;;4947812;28;20073;-71
2023/01/01 11:27:22;;;;;;;8.90;4.72;;;;;;;;;;4956118;28;20084;-70
2023/01/01 11:29:53;;;;;;;10.35;5.07;;;;;;;;;;4950192;28;20300;-72
2023/01/01 11:32:30;;;;;;;11.05;5.47;;;;;;;;;;4954691;28;20070;-73
2023/01/01 11:35:00;;;;;;;13.43;5.10;;;;;;;;;;4960779;28;20081;-72
2023/01/01 11:37:34;;;;;;;13.63;5.60;;;;;;;;;;4961512;28;20275;-70
2023/01/01 11:40:03;;;;;;;11.27;5.05;;;;;;;;;;4964852;28;20568;-71
2023/01/01 11:42:35;;;;;;;10.93;5.85;;;;;;;;;;4949994;28;20150;-73
2023/01/01 11:45:33;;;;;;;12.23;5.20;;;;;;;;;;4956528;28;20055;-72
2023/01/01 11:48:02;;;;;;;12.82;5.60;;;;;;;;;;4945951;28;20153;-72
2023/01/01 11:50:33;;;;;;;11.00;5.45;;;;;;;;;;4949561;28;20058;-72
2023/01/01 11:53:26;;;;;;;11.27;5.80;;;;;;;;;;4947332;28;20973;-72
2023/01/01 11:56:00;;;;;;;10.65;5.63;;;;;;;;;;4945594;28;20418;-68
2023/01/01 11:58:31;;;;;;;;;;;;;;;;;;4954260;28;20461;-73
2023/01/01 12:01:16;;;;;;;11.98;6.20;;;;;;;;;;4950088;28;20295;-76
2023/01/01 12:03:52;;;;;;;10.18;6.03;;;;;;;;;;4951105;28;20050;-72
2023/01/01 12:06:51;;;;;;;16.27;5.60;;;;;;;;;;4953178;28;20077;-77
2023/01/01 12:10:01;;;;;;;11.65;5.75;;;;;;;;;;4954375;28;20066;-75
2023/01/01 12:12:50;;;;;;;14.10;7.43;;;;;;;;;;4941129;28;20050;-72
2023/01/01 12:15:23;;;;;;;10.05;5.53;;;;;;;;;;4952601;28;20125;-71
2023/01/01 12:18:17;;;;;;;13.82;7.10;;;;;;;;;;4950435;28;20066;-71
2023/01/01 12:21:12;;;;;;;9.63;5.75;;;;;;;;;;4952827;28;20282;-72
2023/01/01 12:23:39;;;;;;;11.60;6.72;;;;;;;;;;4950495;28;20059;-72
2023/01/01 12:26:07;;;;;;;15.38;5.82;;;;;;;;;;4950949;28;20058;-73
2023/01/01 12:29:10;;;;;;;11.55;6.00;;;;;;;;;;4957026;28;20058;-71
2023/01/01 12:31:48;;;;;;;11.32;5.75;;;;;;;;;;4956562;28;20074;-72
2023/01/01 12:34:22;;;;;;;14.70;5.60;;;;;;;;;;4957121;28;20059;-78
2023/01/01 12:37:09;;;;;;;8.65;5.88;;;;;;;;;;4962833;28;20735;-79
2023/01/01 12:39:54;;;;;;;13.48;5.90;;;;;;;;;;4963685;28;20051;-77
2023/01/01 12:42:50;;;;;;;11.38;5.25;;;;;;;;;;4965884;28;20658;-75
2023/01/01 12:45:44;;;;;;;11.70;6.30;;;;;;;;;;4957313;28;20113;-75
2023/01/01 12:48:31;;;;;;;9.25;4.88;;;;;;;;;;4969158;28;20058;-75
2023/01/01 12:51:06;;;;;;;12.18;5.53;;;;;;;;;;4966020;28;20078;-81
2023/01/01 12:53:43;;;;;;;9.48;5.40;;;;;;;;;;4965208;28;20058;-77
2023/01/01 12:56:41;;;;;;;13.50;5.57;;;;;;;;;;4971309;28;20047;-80
2023/01/01 12:59:38;;;;;;;12.43;5.38;;;;;;;;;;4968308;28;20074;-82
2023/01/01 13:02:17;;;;;;;11.02;5.30;;;;;;;;;;4968426;28;20369;-80
2023/01/01 13:04:46;;;;;;;17.02;6.15;;;;;;;;;;4965222;28;20412;-79
2023/01/01 13:07:13;;;;;;;15.23;6.97;;;;;;;;;;4963693;28;20043;-79
2023/01/01 13:09:44;;;;;;;13.45;7.03;;;;;;;;;;4974684;28;20051;-75
2023/01/01 13:12:15;;;;;;;12.20;5.28;;;;;;;;;;4987541;28;20429;-78
2023/01/01 13:14:46;;;;;;;9.65;5.38;;;;;;;;;;4965538;28;20048;-76
2023/01/01 13:17:21;;;;;;;9.90;5.63;;;;;;;;;;4965163;28;20050;-77
2023/01/01 13:19:47;;;;;;;;;;;;;;;;;;4957745;28;20067;-80
2023/01/01 13:22:41;;;;;;;12.23;6.15;;;;;;;;;;4961543;28;19933;-76
2023/01/01 13:25:10;;;;;;;14.90;6.43;;;;;;;;;;4966166;28;20081;-77
2023/01/01 13:28:10;;;;;;;13.27;5.80;;;;;;;;;;4961862;28;20730;-79
2023/01/01 13:30:37;;;;;;;14.57;5.85;;;;;;;;;;4960205;28;20113;-78
2023/01/01 13:33:27;;;;;;;8.57;5.25;;;;;;;;;;4958806;28;20082;-78
2023/01/01 13:36:11;;;;;;;15.40;6.13;;;;;;;;;;4961967;28;20102;-81
2023/01/01 13:38:48;;;;;;;14.13;6.47;;;;;;;;;;4966370;28;20046;-74
2023/01/01 13:41:35;;;;;;;13.10;7.00;;;;;;;;;;4966449;28;20134;-79
2023/01/01 13:44:02;;;;;;;14.73;7.72;;;;;;;;;;4962848;28;20130;-73
2023/01/01 13:46:42;;;;;;;15.73;9.15;;;;;;;;;;4961806;28;20047;-83
2023/01/01 13:49:57;;;;;;;14.25;6.75;;;;;;;;;;4972566;28;20744;-78
2023/01/01 13:53:08;;;;;;;15.35;7.18;;;;;;;;;;4957306;28;20057;-79
2023/01/01 13:55:52;;;;;;;14.32;7.18;;;;;;;;;;4928337;29;20047;-82
2023/01/01 13:58:30;;;;;;;15.32;7.18;;;;;;;;;;4931509;28;20053;-82
2023/01/01 14:01:11;;;;;;;12.18;7.35;;;;;;;;;;4927062;28;20158;-79
2023/01/01 14:03:57;;;;;;;15.45;7.00;;;;;;;;;;4931830;28;20044;-82
2023/01/01 14:06:38;;;;;;;11.15;6.50;;;;;;;;;;4928614;28;20466;-80
2023/01/01 14:09:13;;;;;;;17.60;7.43;;;;;;;;;;4926742;28;20052;-75
2023/01/01 14:11:39;;;;;;;13.13;6.03;;;;;;;;;;4923775;29;20490;-78
2023/01/01 14:14:23;;;;;;;10.93;5.45;;;;;;;;;;4925456;28;20043;-78
2023/01/01 14:16:55;;;;;;;12.50;6.35;;;;;;;;;;4931908;28;20130;-80
2023/01/01 14:19:23;;;;;;;15.55;5.97;;;;;;;;;;4937038;28;20059;-78
2023/01/01 14:21:50;;;;;;;12.07;5.70;;;;;;;;;;4930319;28;20409;-75
2023/01/01 14:24:18;;;;;;;11.98;6.43;;;;;;;;;;4928996;28;20056;-75
2023/01/01 14:26:45;;;;;;;13.18;5.97;;;;;;;;;;4956119;28;20121;-81
2023/01/01 14:29:26;;;;;;;14.45;6.38;;;;;;;;;;4965580;28;20058;-74
2023/01/01 14:31:52;;;;;;;10.57;6.50;;;;;;;;;;4952815;28;20062;-80
2023/01/01 14:34:31;;;;;;;12.48;6.28;;;;;;;;;;4955904;28;20055;-79
2023/01/01 14:37:02;;;;;;;12.85;5.97;;;;;;;;;;4966897;28;20062;-77
2023/01/01 14:39:30;;;;;;;9.93;5.57;;;;;;;;;;4964680;28;20070;-74
2023/01/01 14:42:01;;;;;;;12.18;6.13;;;;;;;;;;4959236;28;20065;-78
2023/01/01 14:44:36;;;;;;;11.05;5.97;;;;;;;;;;4963693;28;20400;-78
2023/01/01 14:47:04;;;;;;;14.63;6.05;;;;;;;;;;4965912;28;20062;-75
2023/01/01 14:49:33;;;;;;;13.48;6.55;;;;;;;;;;4960703;28;20062;-79
2023/01/01 14:52:21;;;;;;;14.32;5.78;;;;;;;;;;4955001;28;20109;-80
2023/01/01 14:54:48;;;;;;;17.73;5.75;;;;;;;;;;4962113;28;20067;-77
2023/01/01 14:57:18;;;;;;;10.80;6.15;;;;;;;;;;4962039;28;20055;-82
2023/01/01 14:59:46;;;;;;;13.05;5.70;;;;;;;;;;4957962;28;20050;-76
2023/01/01 15:02:36;;;;;;;9.75;5.15;;;;;;;;;;4962244;28;20043;-80
2023/01/01 15:05:35;;;;;;;14.38;5.60;;;;;;;;;;4960605;28;20524;-80
2023/01/01 15:08:05;;;;;;;12.05;5.65;;;;;;;;;;4943823;28;20059;-75
2023/01/01 15:10:34;;;;;;;13.40;6.45;;;;;;;;;;4966816;28;20053;-75